createdAt,value
2022-07-25T00:00:56.946Z,16.33
2022-07-25T00:03:58.054Z,15.10
2022-07-25T00:06:58.957Z,16.13
2022-07-25T00:09:59.974Z,16.13
2022-07-25T00:13:00.962Z,16.48
2022-07-25T00:16:02.319Z,15.07
2022-07-25T00:19:03.876Z,15.32
2022-07-25T00:22:05.027Z,17.27
2022-07-25T00:25:06.548Z,16.88
2022-07-25T00:28:07.614Z,15.73
2022-07-25T00:31:09.001Z,15.10
2022-07-25T00:34:10.637Z,16.15
2022-07-25T00:37:12.099Z,19.33
2022-07-25T00:40:13.916Z,15.63
2022-07-25T00:43:14.786Z,16.92
2022-07-25T00:46:19.049Z,15.05
2022-07-25T00:49:20.913Z,16.20
2022-07-25T00:52:24.645Z,17.42
2022-07-25T00:55:27.022Z,15.75
2022-07-25T00:58:28.067Z,16.33
2022-07-25T01:01:29.295Z,16.13
2022-07-25T01:04:30.139Z,16.45
2022-07-25T01:07:31.688Z,16.65
2022-07-25T01:10:34.564Z,17.55
2022-07-25T01:13:35.848Z,17.25
2022-07-25T01:16:37.153Z,16.55
2022-07-25T01:19:38.020Z,16.75
2022-07-25T01:22:38.721Z,17.13
2022-07-25T01:25:39.977Z,16.30
2022-07-25T01:28:41.467Z,16.30
2022-07-25T01:31:42.301Z,16.38
2022-07-25T01:34:43.197Z,15.45
2022-07-25T01:37:45.943Z,16.17
2022-07-25T01:40:47.193Z,15.63
2022-07-25T01:43:48.072Z,15.10
2022-07-25T01:46:49.489Z,15.80
2022-07-25T01:49:51.193Z,15.52
2022-07-25T01:52:52.308Z,16.20
2022-07-25T01:55:53.761Z,16.00
2022-07-25T01:58:55.886Z,15.88
2022-07-25T02:01:57.091Z,14.23
2022-07-25T02:04:58.173Z,14.95
2022-07-25T02:07:59.362Z,16.00
2022-07-25T02:11:00.988Z,14.75
2022-07-25T02:14:03.803Z,15.68
2022-07-25T02:17:05.152Z,15.90
2022-07-25T02:20:07.145Z,15.95
2022-07-25T02:23:08.749Z,15.13
2022-07-25T02:26:09.857Z,15.80
2022-07-25T02:29:10.814Z,16.55
2022-07-25T02:32:11.793Z,15.40
2022-07-25T02:35:13.558Z,16.10
2022-07-25T02:38:19.837Z,15.68
2022-07-25T02:41:20.636Z,15.70
2022-07-25T02:44:21.789Z,16.70
2022-07-25T02:47:23.363Z,16.02
2022-07-25T02:50:25.044Z,17.77
2022-07-25T02:53:47.198Z,16.08
2022-07-25T02:56:47.036Z,16.77
2022-07-25T02:59:47.967Z,15.60
2022-07-25T03:02:49.830Z,21.60
2022-07-25T03:05:51.332Z,15.60
2022-07-25T03:08:52.133Z,19.15
2022-07-25T03:11:54.498Z,16.90
2022-07-25T03:14:56.043Z,18.30
2022-07-25T03:17:57.288Z,17.20
2022-07-25T03:20:58.202Z,17.02
2022-07-25T03:23:59.051Z,16.95
2022-07-25T03:27:00.328Z,16.92
2022-07-25T03:30:01.520Z,18.10
2022-07-25T03:33:02.227Z,18.20
2022-07-25T03:36:04.286Z,19.15
2022-07-25T03:39:05.802Z,17.67
2022-07-25T03:42:06.913Z,18.27
2022-07-25T03:45:08.693Z,18.25
2022-07-25T03:48:09.834Z,18.33
2022-07-25T03:51:11.225Z,19.63
2022-07-25T03:54:14.714Z,17.30
2022-07-25T03:57:15.301Z,18.75
2022-07-25T04:00:16.582Z,19.73
2022-07-25T04:03:17.663Z,18.00
2022-07-25T04:06:18.930Z,18.75
2022-07-25T04:09:19.854Z,18.98
2022-07-25T04:12:20.790Z,20.17
2022-07-25T04:15:21.773Z,20.27
2022-07-25T04:18:22.475Z,20.25
2022-07-25T04:24:31.527Z,20.42
2022-07-25T04:27:32.477Z,25.67
2022-07-25T04:30:33.719Z,20.20
2022-07-25T04:33:41.302Z,29.85
2022-07-25T04:36:42.566Z,22.45
2022-07-25T04:39:43.441Z,20.20
2022-07-25T04:42:44.329Z,21.30
2022-07-25T04:45:45.206Z,20.25
2022-07-25T04:48:46.468Z,22.63
2022-07-25T04:51:49.333Z,19.92
2022-07-25T04:54:50.225Z,20.55
2022-07-25T04:57:51.543Z,20.50
2022-07-25T05:00:52.552Z,20.20
2022-07-25T05:03:53.741Z,19.13
2022-07-25T05:06:54.948Z,19.60
2022-07-25T05:09:56.367Z,26.42
2022-07-25T05:12:57.601Z,31.52
2022-07-25T05:15:58.531Z,28.52
2022-07-25T05:18:59.433Z,20.42
2022-07-25T05:22:00.601Z,22.55
2022-07-25T05:25:04.784Z,19.17
2022-07-25T05:28:05.761Z,19.52
2022-07-25T05:31:06.820Z,20.30
2022-07-25T05:34:09.295Z,20.25
2022-07-25T05:37:11.169Z,20.98
2022-07-25T05:40:13.323Z,22.10
2022-07-25T05:43:14.493Z,20.08
2022-07-25T05:46:19.343Z,21.27
2022-07-25T05:49:20.949Z,20.40
2022-07-25T05:52:22.888Z,21.85
2022-07-25T05:55:24.111Z,24.13
2022-07-25T05:58:29.621Z,22.65
2022-07-25T06:01:30.876Z,22.58
2022-07-25T06:04:32.078Z,20.55
2022-07-25T06:07:33.428Z,19.85
2022-07-25T06:10:34.672Z,19.58
2022-07-25T06:13:38.461Z,19.90
2022-07-25T06:16:39.429Z,19.75
2022-07-25T06:19:40.640Z,20.00
2022-07-25T06:22:41.510Z,20.35
2022-07-25T06:25:42.480Z,23.15
2022-07-25T06:28:43.352Z,19.17
2022-07-25T06:31:46.378Z,20.02
2022-07-25T06:34:48.168Z,19.95
2022-07-25T06:37:49.566Z,19.58
2022-07-25T06:40:50.807Z,18.17
2022-07-25T06:43:52.023Z,18.33
2022-07-25T06:46:52.779Z,18.83
2022-07-25T06:49:53.913Z,19.20
2022-07-25T06:52:55.247Z,19.92
2022-07-25T06:55:56.067Z,18.35
2022-07-25T06:58:57.179Z,19.77
2022-07-25T07:01:58.316Z,17.88
2022-07-25T07:04:58.951Z,18.70
2022-07-25T07:08:01.351Z,18.45
2022-07-25T07:11:02.224Z,19.15
2022-07-25T07:14:05.075Z,20.50
2022-07-25T07:17:06.322Z,19.00
2022-07-25T07:20:08.754Z,17.38
2022-07-25T07:23:10.454Z,19.02
2022-07-25T07:26:11.791Z,16.65
2022-07-25T07:29:12.677Z,17.15
2022-07-25T07:32:13.982Z,16.67
2022-07-25T07:35:16.763Z,17.58
2022-07-25T07:38:18.449Z,15.55
2022-07-25T07:41:19.680Z,15.52
2022-07-25T07:44:20.705Z,15.57
2022-07-25T07:47:21.898Z,17.55
2022-07-25T07:50:27.234Z,15.23
2022-07-25T07:53:47.193Z,15.27
2022-07-25T07:56:48.481Z,21.67
2022-07-25T07:59:49.247Z,15.50
2022-07-25T08:02:53.289Z,14.88
2022-07-25T08:05:54.589Z,17.15
2022-07-25T08:08:56.026Z,16.30
2022-07-25T08:11:57.176Z,15.02
2022-07-25T08:14:58.485Z,15.60
2022-07-25T08:18:00.551Z,15.43
2022-07-25T08:21:04.290Z,16.33
2022-07-25T08:24:06.938Z,14.77
2022-07-25T08:27:08.145Z,15.07
2022-07-25T08:30:10.956Z,15.20
2022-07-25T08:33:16.455Z,13.98
2022-07-25T08:36:17.717Z,15.05
2022-07-25T08:39:18.573Z,15.77
2022-07-25T08:42:21.260Z,15.68
2022-07-25T08:45:23.422Z,16.88
2022-07-25T08:48:27.052Z,14.10
2022-07-25T08:51:28.933Z,14.43
2022-07-25T08:54:31.889Z,16.73
2022-07-25T08:57:34.237Z,15.38
2022-07-25T09:00:35.151Z,16.92
2022-07-25T09:03:36.554Z,15.07
2022-07-25T09:06:37.789Z,14.45
2022-07-25T09:09:39.765Z,14.07
2022-07-25T09:12:42.077Z,16.25
2022-07-25T09:15:52.752Z,15.70
2022-07-25T09:18:53.901Z,17.05
2022-07-25T09:22:10.263Z,15.50
2022-07-25T09:28:23.912Z,15.25
2022-07-25T09:31:35.090Z,12.98
2022-07-25T09:34:39.391Z,14.70
2022-07-25T09:37:40.456Z,15.45
2022-07-25T09:40:42.755Z,14.38
2022-07-25T09:43:44.793Z,12.20
2022-07-25T09:46:46.062Z,12.43
2022-07-25T09:49:47.828Z,11.05
2022-07-25T09:52:52.870Z,11.85
2022-07-25T09:55:55.326Z,10.73
2022-07-25T09:58:56.651Z,11.15
2022-07-25T10:02:25.990Z,11.02
2022-07-25T10:05:45.415Z,13.65
2022-07-25T10:08:49.136Z,10.57
2022-07-25T10:12:11.719Z,9.32
2022-07-25T10:15:14.463Z,8.70
2022-07-25T10:18:19.814Z,9.10
2022-07-25T10:21:27.043Z,8.65
2022-07-25T10:24:39.099Z,8.45
2022-07-25T10:28:00.132Z,7.93
2022-07-25T10:31:01.166Z,8.95
2022-07-25T10:34:07.504Z,8.73
2022-07-25T10:40:24.568Z,9.57
2022-07-25T10:43:28.210Z,8.25
2022-07-25T10:46:31.167Z,7.90
2022-07-25T10:49:50.127Z,9.73
2022-07-25T10:53:01.374Z,8.63
2022-07-25T10:56:23.386Z,6.97
2022-07-25T10:59:39.531Z,7.72
2022-07-25T11:02:41.512Z,8.38
2022-07-25T11:05:49.276Z,8.20
2022-07-25T11:08:50.124Z,10.18
2022-07-25T11:11:55.345Z,8.05
2022-07-25T11:15:08.323Z,8.05
2022-07-25T11:18:09.481Z,8.18
2022-07-25T11:21:10.814Z,7.43
2022-07-25T11:24:11.814Z,7.75
2022-07-25T11:27:25.386Z,7.60
2022-07-25T11:30:29.818Z,8.20
2022-07-25T11:33:31.413Z,9.93
2022-07-25T11:36:32.512Z,8.80
2022-07-25T11:39:37.773Z,8.27
2022-07-25T11:42:52.260Z,7.75
2022-07-25T11:46:08.971Z,9.25
2022-07-25T11:49:10.915Z,7.75
2022-07-25T11:52:22.346Z,6.65
2022-07-25T11:55:30.623Z,7.28
2022-07-25T11:58:31.966Z,6.80
2022-07-25T12:01:45.444Z,8.43
2022-07-25T12:04:55.778Z,6.32
2022-07-25T12:07:56.759Z,6.57
2022-07-25T12:10:57.748Z,9.48
2022-07-25T12:14:05.126Z,6.72
2022-07-25T12:17:06.236Z,5.93
2022-07-25T12:20:21.519Z,14.98
2022-07-25T12:23:22.655Z,5.75
2022-07-25T12:26:23.750Z,7.97
2022-07-25T12:29:24.732Z,6.10
2022-07-25T12:32:25.614Z,12.48
2022-07-25T12:35:27.211Z,9.38
2022-07-25T12:38:29.115Z,5.47
2022-07-25T12:41:30.139Z,5.43
2022-07-25T12:44:31.473Z,5.40
2022-07-25T12:47:32.805Z,6.88
2022-07-25T12:50:33.843Z,5.68
2022-07-25T12:53:37.814Z,6.60
2022-07-25T12:56:41.686Z,4.93
2022-07-25T12:59:43.426Z,5.85
2022-07-25T13:02:44.646Z,5.13
2022-07-25T13:05:45.660Z,4.78
2022-07-25T13:08:47.263Z,4.72
2022-07-25T13:11:49.040Z,4.78
2022-07-25T13:14:50.610Z,4.70
2022-07-25T13:17:51.731Z,5.25
2022-07-25T13:20:53.042Z,5.18
2022-07-25T13:23:54.114Z,5.25
2022-07-25T13:26:55.251Z,5.13
2022-07-25T13:29:56.316Z,5.60
2022-07-25T13:32:57.772Z,5.70
2022-07-25T13:35:58.706Z,6.18
2022-07-25T13:38:59.739Z,6.13
2022-07-25T13:42:01.126Z,11.18
2022-07-25T13:45:02.458Z,5.75
2022-07-25T13:48:28.579Z,6.03
2022-07-25T13:51:26.847Z,5.57
2022-07-25T13:54:27.995Z,5.78
2022-07-25T13:57:28.793Z,6.10
2022-07-25T14:00:30.175Z,5.65
2022-07-25T14:03:30.880Z,6.63
2022-07-25T14:06:32.026Z,6.60
2022-07-25T14:09:32.854Z,9.70
2022-07-25T14:12:34.596Z,9.13
2022-07-25T14:15:36.024Z,6.30
2022-07-25T14:18:37.171Z,6.97
2022-07-25T14:21:38.381Z,6.25
2022-07-25T14:24:39.313Z,6.65
2022-07-25T14:27:40.647Z,35.88
2022-07-25T14:30:41.713Z,6.28
2022-07-25T14:33:42.975Z,6.45
2022-07-25T14:36:44.917Z,5.75
2022-07-25T14:39:46.615Z,6.32
2022-07-25T14:42:47.485Z,6.90
2022-07-25T14:45:48.494Z,7.03
2022-07-25T14:48:50.037Z,6.30
2022-07-25T14:51:51.241Z,7.30
2022-07-25T14:54:52.261Z,6.97
2022-07-25T14:57:53.101Z,7.10
2022-07-25T15:00:54.474Z,7.70
2022-07-25T15:03:57.219Z,7.88
2022-07-25T15:06:58.478Z,7.68
2022-07-25T15:09:59.949Z,6.82
2022-07-25T15:13:29.241Z,9.48
2022-07-25T15:16:22.134Z,7.35
2022-07-25T15:19:23.262Z,6.72
2022-07-25T15:22:24.602Z,6.43
2022-07-25T15:26:00.000Z,8.38
2022-07-25T15:28:47.325Z,6.22
2022-07-25T15:31:49.420Z,6.07
2022-07-25T15:34:50.272Z,6.47
2022-07-25T15:37:51.162Z,6.20
2022-07-25T15:40:52.154Z,5.97
2022-07-25T15:43:53.503Z,6.47
2022-07-25T15:46:54.503Z,6.65
2022-07-25T15:49:55.933Z,9.35
2022-07-25T15:52:57.283Z,7.40
2022-07-25T15:55:58.243Z,7.05
2022-07-25T15:58:59.581Z,7.05
2022-07-25T16:02:00.900Z,6.70
2022-07-25T16:05:03.555Z,7.72
2022-07-25T16:08:05.569Z,7.55
2022-07-25T16:11:06.797Z,8.10
2022-07-25T16:14:09.145Z,7.47
2022-07-25T16:17:10.105Z,8.05
2022-07-25T16:20:11.974Z,8.55
2022-07-25T16:23:13.902Z,7.93
2022-07-25T16:26:15.296Z,7.53
2022-07-25T16:29:16.617Z,7.80
2022-07-25T16:32:18.971Z,7.20
2022-07-25T16:35:20.072Z,8.32
2022-07-25T16:38:22.388Z,9.27
2022-07-25T16:41:23.381Z,7.65
2022-07-25T16:44:24.652Z,7.70
2022-07-25T16:47:26.199Z,8.20
2022-07-25T16:50:27.154Z,8.07
2022-07-25T16:53:28.275Z,8.50
2022-07-25T16:56:29.706Z,7.47
2022-07-25T16:59:30.585Z,7.88
2022-07-25T17:02:32.414Z,7.43
2022-07-25T17:05:33.511Z,6.43
2022-07-25T17:08:35.813Z,7.20
2022-07-25T17:11:37.149Z,7.00
2022-07-25T17:14:38.126Z,7.63
2022-07-25T17:17:39.133Z,6.40
2022-07-25T17:20:40.678Z,7.47
2022-07-25T17:23:41.732Z,7.35
2022-07-25T17:26:43.076Z,7.95
2022-07-25T17:29:43.821Z,7.88
2022-07-25T17:32:45.165Z,8.80
2022-07-25T17:35:46.490Z,6.97
2022-07-25T17:38:47.417Z,7.22
2022-07-25T17:41:48.919Z,6.35
2022-07-25T17:44:52.058Z,6.88
2022-07-25T17:47:53.390Z,8.60
2022-07-25T17:50:54.442Z,8.27
2022-07-25T17:53:55.685Z,7.75
2022-07-25T17:56:57.643Z,8.25
2022-07-25T17:59:58.390Z,6.75
2022-07-25T18:02:59.889Z,7.30
2022-07-25T18:06:00.749Z,9.20
2022-07-25T18:09:01.963Z,6.82
2022-07-25T18:12:03.870Z,6.78
2022-07-25T18:15:06.761Z,6.85
2022-07-25T18:18:10.538Z,7.50
2022-07-25T18:21:13.008Z,6.85
2022-07-25T18:24:14.285Z,6.40
2022-07-25T18:27:15.104Z,6.80
2022-07-25T18:30:17.055Z,6.63
2022-07-25T18:33:19.309Z,7.45
2022-07-25T18:36:20.501Z,6.82
2022-07-25T18:39:22.816Z,6.55
2022-07-25T18:42:29.541Z,6.32
2022-07-25T18:45:31.361Z,6.97
2022-07-25T18:48:32.480Z,7.57
2022-07-25T18:51:33.413Z,6.97
2022-07-25T18:54:34.110Z,6.43
2022-07-25T18:57:35.296Z,7.30
2022-07-25T19:00:36.254Z,10.18
2022-07-25T19:03:37.774Z,8.50
2022-07-25T19:06:39.156Z,7.28
2022-07-25T19:09:40.215Z,8.00
2022-07-25T19:12:41.650Z,9.20
2022-07-25T19:15:42.550Z,7.15
2022-07-25T19:18:43.952Z,6.40
2022-07-25T19:21:46.072Z,7.40
2022-07-25T19:24:48.087Z,7.30
2022-07-25T19:27:49.173Z,11.45
2022-07-25T19:30:50.609Z,7.10
2022-07-25T19:33:51.792Z,7.05
2022-07-25T19:36:55.687Z,6.47
2022-07-25T19:39:56.870Z,6.22
2022-07-25T19:42:58.745Z,7.40
2022-07-25T19:46:00.083Z,6.72
2022-07-25T19:49:01.893Z,6.47
2022-07-25T19:52:03.441Z,6.72
2022-07-25T19:55:05.910Z,7.45
2022-07-25T19:58:08.683Z,6.18
2022-07-25T20:01:09.987Z,6.53
2022-07-25T20:04:11.415Z,6.20
2022-07-25T20:07:12.681Z,9.50
2022-07-25T20:10:13.463Z,5.93
2022-07-25T20:13:19.049Z,7.38
2022-07-25T20:16:20.452Z,6.07
2022-07-25T20:19:21.797Z,5.88
2022-07-25T20:22:23.165Z,7.53
2022-07-25T20:25:23.920Z,6.78
2022-07-25T20:28:24.859Z,7.68
2022-07-25T20:31:26.142Z,8.90
2022-07-25T20:34:27.088Z,6.45
2022-07-25T20:37:28.282Z,6.43
2022-07-25T20:40:30.024Z,6.82
2022-07-25T20:43:32.872Z,9.05
2022-07-25T20:46:36.080Z,6.28
2022-07-25T20:49:37.341Z,10.50
2022-07-25T20:52:39.167Z,5.97
2022-07-25T20:55:40.347Z,7.22
2022-07-25T20:58:41.294Z,6.35
2022-07-25T21:01:42.794Z,6.28
2022-07-25T21:04:44.994Z,9.70
2022-07-25T21:07:46.537Z,10.45
2022-07-25T21:10:47.353Z,9.27
2022-07-25T21:13:48.287Z,6.22
2022-07-25T21:16:49.593Z,7.38
2022-07-25T21:19:50.456Z,6.32
2022-07-25T21:22:51.398Z,7.82
2022-07-25T21:25:52.502Z,9.05
2022-07-25T21:28:53.884Z,6.80
2022-07-25T21:31:54.711Z,7.20
2022-07-25T21:34:55.878Z,12.02
2022-07-25T21:37:58.781Z,6.70
2022-07-25T21:40:59.914Z,6.95
2022-07-25T21:44:01.345Z,8.90
2022-07-25T21:47:02.475Z,6.53
2022-07-25T21:50:24.463Z,7.00
2022-07-25T21:53:26.370Z,7.05
2022-07-25T21:56:27.707Z,7.75
2022-07-25T21:59:28.943Z,5.80
2022-07-25T22:02:29.960Z,6.30
2022-07-25T22:05:31.514Z,8.15
2022-07-25T22:08:32.611Z,5.75
2022-07-25T22:11:42.947Z,6.43
2022-07-25T22:14:47.801Z,6.20
2022-07-25T22:17:50.084Z,6.43
2022-07-25T22:20:51.253Z,6.65
2022-07-25T22:23:52.622Z,6.97
2022-07-25T22:26:54.142Z,8.48
2022-07-25T22:29:55.064Z,6.20
2022-07-25T22:32:56.583Z,7.55
2022-07-25T22:35:57.788Z,6.50
2022-07-25T22:38:58.985Z,11.90
2022-07-25T22:42:00.364Z,9.30
2022-07-25T22:45:01.900Z,7.43
2022-07-25T22:48:02.942Z,7.72
2022-07-25T22:51:04.399Z,7.57
2022-07-25T22:54:05.750Z,7.10
2022-07-25T22:57:07.123Z,8.45
2022-07-25T23:00:12.006Z,10.48
2022-07-25T23:03:13.311Z,7.85
2022-07-25T23:06:14.649Z,9.07
2022-07-25T23:09:15.782Z,9.63
2022-07-25T23:12:16.866Z,8.48
2022-07-25T23:15:18.087Z,6.93
2022-07-25T23:18:19.803Z,8.32
2022-07-25T23:21:21.020Z,7.82
2022-07-25T23:24:21.979Z,8.88
2022-07-25T23:27:25.410Z,8.65
2022-07-25T23:30:26.499Z,7.30
2022-07-25T23:33:27.714Z,11.05
2022-07-25T23:36:30.088Z,7.22
2022-07-25T23:39:32.003Z,10.35
2022-07-25T23:42:33.001Z,10.10
2022-07-25T23:45:35.464Z,10.40
2022-07-25T23:48:36.781Z,10.88
2022-07-25T23:51:38.789Z,8.73
2022-07-25T23:54:41.016Z,8.02
2022-07-25T23:57:41.811Z,21.58
